createdAt,value
2019-05-23T00:01:26.490Z,4.90
2019-05-23T00:04:23.289Z,3.02
2019-05-23T00:07:16.906Z,4.10
2019-05-23T00:10:09.583Z,5.08
2019-05-23T00:12:55.409Z,5.30
2019-05-23T00:15:42.477Z,5.33
2019-05-23T00:18:20.853Z,4.62
2019-05-23T00:20:52.001Z,4.67
2019-05-23T00:23:25.693Z,5.45
2019-05-23T00:25:59.621Z,5.60
2019-05-23T00:28:35.503Z,4.72
2019-05-23T00:31:21.447Z,4.62
2019-05-23T00:33:55.030Z,6.33
2019-05-23T00:36:29.176Z,6.62
2019-05-23T00:39:03.617Z,6.03
2019-05-23T00:41:37.343Z,6.20
2019-05-23T00:44:10.875Z,5.75
2019-05-23T00:46:43.889Z,6.37
2019-05-23T00:49:18.693Z,5.40
2019-05-23T00:51:52.897Z,6.58
2019-05-23T00:54:26.188Z,7.70
2019-05-23T00:56:59.449Z,5.35
2019-05-23T00:59:33.134Z,5.78
2019-05-23T01:02:07.677Z,6.05
2019-05-23T01:04:42.811Z,6.58
2019-05-23T01:07:17.281Z,7.42
2019-05-23T01:09:52.107Z,6.90
2019-05-23T01:12:25.101Z,5.37
2019-05-23T01:14:58.306Z,7.50
2019-05-23T01:17:33.665Z,6.33
2019-05-23T01:20:10.647Z,7.37
2019-05-23T01:22:45.874Z,5.20
2019-05-23T01:25:23.587Z,6.62
2019-05-23T01:27:56.784Z,6.20
2019-05-23T01:30:36.320Z,7.40
2019-05-23T01:33:10.393Z,6.25
2019-05-23T01:35:45.028Z,6.20
2019-05-23T01:38:19.521Z,6.25
2019-05-23T01:40:54.232Z,5.97
2019-05-23T01:43:27.726Z,4.75
2019-05-23T01:46:02.754Z,5.47
2019-05-23T01:48:35.909Z,5.30
2019-05-23T01:51:11.375Z,5.83
2019-05-23T01:53:44.477Z,6.45
2019-05-23T01:56:18.545Z,6.83
2019-05-23T01:58:51.852Z,5.58
2019-05-23T02:01:25.338Z,6.20
2019-05-23T02:03:58.378Z,6.78
2019-05-23T02:06:32.884Z,8.53
2019-05-23T02:09:09.017Z,8.50
2019-05-23T02:11:43.218Z,7.78
2019-05-23T02:14:16.703Z,7.60
2019-05-23T02:16:50.706Z,8.35
2019-05-23T02:19:23.766Z,6.33
2019-05-23T02:21:57.668Z,6.05
2019-05-23T02:24:31.686Z,6.03
2019-05-23T02:27:05.511Z,6.70
2019-05-23T02:29:39.333Z,6.55
2019-05-23T02:32:12.332Z,6.17
2019-05-23T02:34:45.774Z,7.05
2019-05-23T02:37:34.498Z,6.40
2019-05-23T02:40:18.327Z,5.83
2019-05-23T02:42:56.084Z,8.70
2019-05-23T02:45:35.211Z,7.75
2019-05-23T02:48:12.427Z,6.05
2019-05-23T02:50:56.061Z,8.00
2019-05-23T02:53:33.771Z,7.70
2019-05-23T02:56:11.800Z,8.03
2019-05-23T02:59:13.703Z,7.03
2019-05-23T03:03:03.406Z,6.72
2019-05-23T03:05:38.927Z,8.90
2019-05-23T03:08:12.984Z,8.58
2019-05-23T03:10:58.629Z,6.62
2019-05-23T03:13:34.530Z,7.53
2019-05-23T03:16:07.962Z,8.95
2019-05-23T03:18:46.223Z,8.10
2019-05-23T03:21:21.363Z,7.08
2019-05-23T03:23:54.290Z,7.25
2019-05-23T03:27:06.012Z,7.37
2019-05-23T03:29:39.711Z,7.90
2019-05-23T03:32:49.921Z,7.50
2019-05-23T03:35:44.465Z,8.48
2019-05-23T03:38:17.277Z,8.38
2019-05-23T03:40:50.723Z,7.37
2019-05-23T03:43:23.637Z,7.95
2019-05-23T03:46:02.073Z,7.30
2019-05-23T03:48:36.346Z,6.80
2019-05-23T03:51:10.381Z,8.18
2019-05-23T03:53:46.180Z,5.87
2019-05-23T03:56:20.455Z,6.05
2019-05-23T03:58:56.209Z,8.03
2019-05-23T04:01:45.929Z,6.85
2019-05-23T04:04:07.403Z,8.23
2019-05-23T04:06:40.290Z,6.87
2019-05-23T04:09:13.574Z,5.37
2019-05-23T04:11:46.640Z,6.85
2019-05-23T04:14:20.251Z,7.42
2019-05-23T04:16:53.389Z,7.62
2019-05-23T04:19:26.362Z,7.65
2019-05-23T04:21:59.371Z,5.83
2019-05-23T04:24:32.240Z,7.33
2019-05-23T04:27:05.465Z,6.28
2019-05-23T04:29:38.332Z,6.62
2019-05-23T04:32:11.474Z,7.28
2019-05-23T04:34:44.747Z,6.90
2019-05-23T04:37:17.687Z,5.20
2019-05-23T04:39:50.968Z,6.67
2019-05-23T04:42:24.002Z,6.20
2019-05-23T04:44:56.819Z,6.50
2019-05-23T04:47:31.151Z,6.28
2019-05-23T04:50:04.281Z,6.62
2019-05-23T04:52:37.363Z,6.45
2019-05-23T04:55:13.051Z,6.40
2019-05-23T04:57:47.151Z,5.85
2019-05-23T05:00:21.490Z,5.80
2019-05-23T05:02:55.365Z,6.65
2019-05-23T05:05:28.303Z,6.97
2019-05-23T05:08:01.447Z,7.05
2019-05-23T05:10:34.782Z,6.37
2019-05-23T05:13:08.036Z,6.62
2019-05-23T05:15:40.825Z,5.55
2019-05-23T05:18:14.438Z,4.95
2019-05-23T05:20:47.681Z,4.70
2019-05-23T05:23:20.667Z,4.95
2019-05-23T05:25:53.637Z,6.35
2019-05-23T05:28:26.474Z,5.95
2019-05-23T05:30:59.384Z,4.85
2019-05-23T05:33:32.197Z,5.03
2019-05-23T05:36:05.183Z,6.45
2019-05-23T05:38:38.675Z,5.40
2019-05-23T05:41:11.642Z,5.28
2019-05-23T05:43:44.545Z,6.17
2019-05-23T05:46:19.043Z,6.20
2019-05-23T05:48:52.931Z,4.67
2019-05-23T05:51:25.760Z,4.62
2019-05-23T05:53:59.392Z,5.17
2019-05-23T05:56:32.227Z,5.10
2019-05-23T05:59:05.610Z,5.12
2019-05-23T06:01:38.824Z,5.90
2019-05-23T06:04:11.723Z,5.28
2019-05-23T06:06:50.735Z,3.90
2019-05-23T06:09:26.348Z,4.25
2019-05-23T06:11:59.270Z,4.75
2019-05-23T06:14:32.651Z,4.83
2019-05-23T06:17:08.108Z,3.83
2019-05-23T06:19:41.022Z,3.62
2019-05-23T06:22:14.647Z,4.25
2019-05-23T06:24:53.126Z,3.27
2019-05-23T06:27:24.605Z,2.72
2019-05-23T06:29:58.002Z,3.45
2019-05-23T06:32:35.462Z,3.83
2019-05-23T06:35:16.481Z,4.42
2019-05-23T06:37:55.912Z,3.70
2019-05-23T06:40:29.671Z,3.35
2019-05-23T06:43:03.236Z,2.83
2019-05-23T06:45:36.586Z,3.60
2019-05-23T06:48:11.985Z,3.75
2019-05-23T06:50:47.657Z,3.55
2019-05-23T06:53:25.801Z,3.10
2019-05-23T06:55:58.974Z,3.27
2019-05-23T06:58:38.308Z,3.47
2019-05-23T07:01:18.891Z,3.35
2019-05-23T07:03:57.588Z,3.72
2019-05-23T07:06:34.162Z,3.65
2019-05-23T07:09:14.818Z,3.83
2019-05-23T07:11:47.827Z,3.17
2019-05-23T07:14:23.736Z,3.22
2019-05-23T07:16:56.915Z,3.22
2019-05-23T07:19:30.042Z,3.10
2019-05-23T07:22:03.123Z,2.35
2019-05-23T07:24:37.093Z,2.52
2019-05-23T07:27:10.075Z,3.30
2019-05-23T07:29:43.204Z,2.85
2019-05-23T07:32:16.252Z,3.40
2019-05-23T07:34:49.229Z,3.15
2019-05-23T07:37:22.689Z,3.20
2019-05-23T07:39:55.696Z,3.00
2019-05-23T07:42:28.892Z,2.83
2019-05-23T07:45:03.508Z,3.12
2019-05-23T07:47:39.917Z,2.42
2019-05-23T07:50:13.593Z,2.98
2019-05-23T07:52:46.860Z,2.60
2019-05-23T07:55:27.008Z,2.52
2019-05-23T07:58:05.409Z,3.10
2019-05-23T08:00:41.948Z,2.40
2019-05-23T08:03:15.962Z,2.70
2019-05-23T08:05:48.902Z,2.55
2019-05-23T08:08:23.865Z,2.22
2019-05-23T08:11:00.889Z,2.05
2019-05-23T08:13:34.122Z,2.20
2019-05-23T08:16:07.338Z,2.52
2019-05-23T08:18:40.341Z,2.60
2019-05-23T08:21:14.926Z,2.62
2019-05-23T08:23:49.303Z,2.45
2019-05-23T08:26:22.834Z,2.20
2019-05-23T08:29:24.163Z,2.65
2019-05-23T08:31:32.761Z,2.08
2019-05-23T08:34:06.485Z,1.82
2019-05-23T08:36:39.833Z,2.00
2019-05-23T08:39:14.494Z,2.47
2019-05-23T08:41:47.716Z,2.10
2019-05-23T08:44:20.985Z,2.55
2019-05-23T08:46:54.461Z,2.50
2019-05-23T08:49:27.968Z,2.50
2019-05-23T08:52:00.830Z,2.45
2019-05-23T08:54:33.993Z,2.58
2019-05-23T08:57:08.571Z,2.27
2019-05-23T08:59:41.424Z,2.25
2019-05-23T09:02:17.163Z,2.17
2019-05-23T09:05:03.700Z,2.52
2019-05-23T09:07:25.071Z,2.70
2019-05-23T09:09:58.080Z,2.25
2019-05-23T09:12:31.125Z,2.20
2019-05-23T09:15:04.502Z,2.55
2019-05-23T09:17:52.246Z,2.62
2019-05-23T09:20:14.075Z,2.00
2019-05-23T09:22:48.658Z,1.70
2019-05-23T09:25:23.020Z,1.98
2019-05-23T09:27:56.379Z,1.82
2019-05-23T09:30:31.425Z,2.10
2019-05-23T09:33:06.092Z,1.40
2019-05-23T09:35:39.380Z,1.70
2019-05-23T09:38:12.335Z,1.87
2019-05-23T09:40:46.040Z,1.82
2019-05-23T09:43:22.692Z,1.57
2019-05-23T09:45:58.223Z,1.40
2019-05-23T09:48:31.686Z,1.60
2019-05-23T09:51:04.829Z,2.10
2019-05-23T09:53:38.208Z,1.40
2019-05-23T09:56:11.309Z,2.92
2019-05-23T09:58:44.304Z,1.50
2019-05-23T10:01:19.348Z,1.45
2019-05-23T10:03:52.381Z,1.40
2019-05-23T10:06:27.705Z,1.30
2019-05-23T10:09:01.110Z,1.10
2019-05-23T10:11:35.352Z,1.15
2019-05-23T10:14:12.642Z,1.12
2019-05-23T10:16:46.214Z,1.87
2019-05-23T10:19:22.029Z,1.37
2019-05-23T10:21:54.981Z,1.25
2019-05-23T10:24:28.025Z,1.85
2019-05-23T10:27:00.992Z,1.32
2019-05-23T10:29:34.035Z,1.17
2019-05-23T10:32:10.334Z,1.02
2019-05-23T10:34:43.346Z,1.40
2019-05-23T10:37:19.769Z,2.58
2019-05-23T10:39:56.329Z,1.22
2019-05-23T10:42:29.669Z,1.47
2019-05-23T10:45:04.590Z,1.17
2019-05-23T10:47:39.106Z,1.30
2019-05-23T10:50:15.524Z,0.95
2019-05-23T10:52:48.701Z,1.20
2019-05-23T10:55:21.659Z,0.90
2019-05-23T10:57:54.858Z,1.40
2019-05-23T11:00:29.026Z,1.40
2019-05-23T11:03:04.509Z,0.93
2019-05-23T11:05:38.265Z,1.10
2019-05-23T11:08:11.554Z,1.05
2019-05-23T11:10:46.373Z,0.82
2019-05-23T11:13:20.990Z,0.80
2019-05-23T11:15:54.578Z,0.80
2019-05-23T11:20:46.406Z,1.00
2019-05-23T11:23:25.002Z,1.10
2019-05-23T11:26:01.079Z,0.80
2019-05-23T11:28:34.636Z,1.30
2019-05-23T11:31:08.635Z,1.00
2019-05-23T11:33:41.853Z,1.10
2019-05-23T11:36:31.904Z,0.98
2019-05-23T11:38:50.773Z,0.95
2019-05-23T11:41:25.195Z,0.90
2019-05-23T11:43:58.086Z,1.72
2019-05-23T11:46:37.198Z,0.80
2019-05-23T11:49:10.146Z,1.10
2019-05-23T11:51:43.561Z,1.02
2019-05-23T11:54:16.862Z,0.90
2019-05-23T11:56:50.510Z,0.90
2019-05-23T11:59:24.599Z,0.80
2019-05-23T12:02:12.530Z,0.90
2019-05-23T12:04:45.566Z,0.90
2019-05-23T12:07:25.931Z,0.95
2019-05-23T12:10:00.234Z,1.00
2019-05-23T12:12:33.547Z,1.00
2019-05-23T12:15:09.884Z,0.90
2019-05-23T12:17:44.614Z,0.88
2019-05-23T12:20:18.643Z,0.85
2019-05-23T12:22:51.926Z,0.70
2019-05-23T12:25:26.675Z,0.70
2019-05-23T12:27:59.661Z,1.07
2019-05-23T12:30:32.731Z,0.72
2019-05-23T12:33:06.359Z,0.85
2019-05-23T12:35:41.227Z,0.78
2019-05-23T12:38:15.771Z,0.98
2019-05-23T12:40:48.721Z,1.00
2019-05-23T12:43:21.650Z,1.20
2019-05-23T12:45:54.716Z,0.90
2019-05-23T12:48:38.264Z,1.07
2019-05-23T12:51:11.373Z,0.75
2019-05-23T12:53:44.499Z,1.00
2019-05-23T12:56:18.095Z,0.70
2019-05-23T12:58:51.666Z,0.93
2019-05-23T13:01:25.479Z,0.68
2019-05-23T13:03:59.045Z,1.15
2019-05-23T13:06:33.154Z,1.00
2019-05-23T13:09:09.240Z,0.70
2019-05-23T13:11:42.375Z,0.80
2019-05-23T13:14:16.578Z,0.88
2019-05-23T13:16:49.978Z,0.70
2019-05-23T13:19:23.080Z,0.93
2019-05-23T13:21:57.376Z,0.93
2019-05-23T13:24:50.560Z,0.80
2019-05-23T13:27:09.072Z,0.90
2019-05-23T13:29:42.536Z,0.80
2019-05-23T13:32:16.034Z,1.00
2019-05-23T13:34:49.013Z,0.70
2019-05-23T13:37:23.602Z,0.60
2019-05-23T13:39:56.630Z,0.90
2019-05-23T13:42:29.685Z,1.10
2019-05-23T13:45:02.637Z,1.25
2019-05-23T13:47:35.776Z,0.90
2019-05-23T13:50:09.317Z,0.95
2019-05-23T13:52:42.753Z,1.00
2019-05-23T13:55:16.917Z,0.80
2019-05-23T13:57:50.289Z,1.77
2019-05-23T14:00:25.069Z,0.98
2019-05-23T14:02:58.158Z,0.90
2019-05-23T14:05:31.519Z,1.00
2019-05-23T14:08:12.514Z,1.02
2019-05-23T14:10:40.426Z,1.70
2019-05-23T14:13:13.359Z,1.55
2019-05-23T14:15:49.027Z,1.25
2019-05-23T14:18:22.142Z,0.90
2019-05-23T14:20:55.260Z,0.80
2019-05-23T14:23:33.278Z,0.80
2019-05-23T14:26:06.483Z,1.00
2019-05-23T14:28:39.654Z,0.60
2019-05-23T14:31:35.655Z,0.90
2019-05-23T14:34:17.083Z,0.93
2019-05-23T14:36:59.265Z,0.98
2019-05-23T14:39:44.726Z,0.68
2019-05-23T14:42:45.978Z,0.72
2019-05-23T14:45:35.703Z,0.78
2019-05-23T14:48:26.452Z,2.35
2019-05-23T14:51:15.674Z,0.80
2019-05-23T14:53:52.502Z,0.70
2019-05-23T14:56:27.094Z,0.72
2019-05-23T14:59:00.278Z,0.90
2019-05-23T15:01:34.671Z,0.78
2019-05-23T15:04:08.199Z,0.80
2019-05-23T15:06:41.098Z,0.90
2019-05-23T15:09:14.054Z,1.10
2019-05-23T15:11:47.586Z,0.70
2019-05-23T15:14:20.703Z,0.85
2019-05-23T15:16:53.566Z,1.02
2019-05-23T15:19:41.859Z,0.70
2019-05-23T15:22:01.264Z,0.65
2019-05-23T15:24:34.520Z,0.70
2019-05-23T15:27:07.520Z,0.70
2019-05-23T15:29:40.560Z,0.70
2019-05-23T15:32:13.596Z,0.98
2019-05-23T15:34:46.463Z,0.70
2019-05-23T15:37:19.627Z,0.78
2019-05-23T15:39:52.683Z,0.70
2019-05-23T15:42:25.699Z,1.00
2019-05-23T15:44:58.748Z,0.90
2019-05-23T15:47:33.359Z,1.05
2019-05-23T15:50:11.917Z,0.80
2019-05-23T15:53:02.861Z,1.10
2019-05-23T15:55:57.511Z,0.90
2019-05-23T15:58:39.220Z,0.90
2019-05-23T16:01:19.347Z,0.82
2019-05-23T16:04:05.190Z,0.70
2019-05-23T16:06:40.366Z,1.35
2019-05-23T16:09:28.606Z,1.65
2019-05-23T16:11:48.496Z,1.37
2019-05-23T16:14:22.067Z,2.00
2019-05-23T16:16:56.838Z,2.45
2019-05-23T16:19:30.384Z,2.10
2019-05-23T16:22:04.386Z,1.37
2019-05-23T16:24:37.379Z,1.67
2019-05-23T16:27:12.158Z,1.55
2019-05-23T16:29:44.964Z,1.30
2019-05-23T16:32:17.785Z,1.98
2019-05-23T16:34:50.809Z,1.65
2019-05-23T16:37:23.951Z,1.17
2019-05-23T16:39:56.916Z,1.17
2019-05-23T16:42:30.315Z,1.25
2019-05-23T16:45:03.510Z,1.47
2019-05-23T16:47:36.875Z,6.05
2019-05-23T16:50:10.758Z,2.05
2019-05-23T16:52:49.552Z,7.75
2019-05-23T16:55:33.803Z,8.40
2019-05-23T16:58:16.705Z,2.52
2019-05-23T17:01:01.750Z,3.87
2019-05-23T17:03:43.018Z,2.05
2019-05-23T17:06:43.640Z,2.30
2019-05-23T17:09:35.313Z,10.28
2019-05-23T17:12:25.761Z,10.30
2019-05-23T17:15:10.898Z,9.58
2019-05-23T17:18:14.982Z,10.40
2019-05-23T17:21:06.367Z,12.30
2019-05-23T17:23:58.244Z,2.40
2019-05-23T17:27:08.453Z,3.08
2019-05-23T17:29:48.182Z,2.50
2019-05-23T17:32:25.632Z,1.72
2019-05-23T17:34:59.002Z,1.17
2019-05-23T17:37:32.494Z,1.10
2019-05-23T17:40:06.143Z,0.70
2019-05-23T17:42:39.246Z,1.50
2019-05-23T17:45:14.215Z,1.15
2019-05-23T17:47:47.589Z,1.25
2019-05-23T17:50:20.617Z,1.27
2019-05-23T17:52:53.637Z,1.00
2019-05-23T17:55:28.382Z,1.20
2019-05-23T17:58:01.400Z,1.50
2019-05-23T18:00:41.233Z,1.20
2019-05-23T18:03:15.404Z,1.20
2019-05-23T18:05:48.946Z,1.35
2019-05-23T18:08:23.704Z,1.70
2019-05-23T18:10:57.744Z,1.22
2019-05-23T18:13:32.601Z,1.37
2019-05-23T18:16:06.732Z,1.10
2019-05-23T18:18:40.198Z,1.60
2019-05-23T18:21:13.863Z,1.50
2019-05-23T18:23:48.859Z,2.22
2019-05-23T18:26:22.153Z,2.58
2019-05-23T18:28:56.328Z,3.00
2019-05-23T18:31:32.257Z,3.80
2019-05-23T18:34:07.924Z,5.15
2019-05-23T18:36:41.787Z,4.65
2019-05-23T18:39:17.071Z,4.08
2019-05-23T18:41:50.554Z,3.33
2019-05-23T18:44:24.526Z,3.20
2019-05-23T18:47:00.182Z,2.90
2019-05-23T18:49:34.925Z,2.55
2019-05-23T18:52:09.418Z,2.10
2019-05-23T18:54:45.070Z,2.80
2019-05-23T18:57:19.339Z,3.58
2019-05-23T18:59:53.255Z,3.27
2019-05-23T19:02:27.118Z,3.27
2019-05-23T19:05:02.353Z,3.00
2019-05-23T19:07:35.960Z,2.98
2019-05-23T19:10:11.636Z,4.12
2019-05-23T19:12:45.476Z,4.33
2019-05-23T19:15:19.197Z,4.80
2019-05-23T19:17:53.234Z,3.95
2019-05-23T19:20:26.617Z,4.53
2019-05-23T19:23:01.051Z,5.20
2019-05-23T19:25:37.799Z,5.35
2019-05-23T19:28:12.917Z,3.08
2019-05-23T19:30:46.952Z,3.08
2019-05-23T19:33:20.644Z,3.47
2019-05-23T19:35:54.237Z,3.40
2019-05-23T19:38:28.443Z,5.20
2019-05-23T19:41:02.906Z,5.22
2019-05-23T19:43:48.111Z,5.40
2019-05-23T19:46:21.592Z,4.87
2019-05-23T19:48:59.133Z,4.67
2019-05-23T19:51:37.404Z,4.50
2019-05-23T19:54:41.399Z,4.70
2019-05-23T19:57:30.964Z,5.30
2019-05-23T20:05:06.121Z,8.70
2019-05-23T20:07:41.635Z,6.60
2019-05-23T20:10:16.065Z,5.62
2019-05-23T20:12:49.587Z,3.65
2019-05-23T20:15:23.634Z,2.75
2019-05-23T20:17:57.267Z,2.47
2019-05-23T20:20:34.807Z,2.60
2019-05-23T20:23:09.474Z,2.50
2019-05-23T20:25:42.976Z,3.25
2019-05-23T20:28:16.342Z,2.70
2019-05-23T20:30:58.873Z,3.10
2019-05-23T20:33:32.532Z,3.30
2019-05-23T20:36:12.270Z,3.08
2019-05-23T20:38:47.006Z,3.95
2019-05-23T20:41:22.305Z,3.95
2019-05-23T20:43:55.603Z,3.77
2019-05-23T20:46:29.291Z,4.58
2019-05-23T20:49:02.626Z,4.42
2019-05-23T20:51:37.879Z,3.92
2019-05-23T20:54:14.485Z,4.33
2019-05-23T20:56:48.057Z,4.25
2019-05-23T20:59:21.465Z,3.92
2019-05-23T21:01:54.706Z,4.35
2019-05-23T21:04:27.846Z,4.25
2019-05-23T21:07:01.087Z,4.35
2019-05-23T21:09:34.862Z,4.60
2019-05-23T21:12:08.970Z,4.85
2019-05-23T21:14:42.756Z,4.45
2019-05-23T21:17:16.323Z,3.98
2019-05-23T21:19:49.436Z,4.25
2019-05-23T21:22:22.768Z,4.17
2019-05-23T21:24:56.644Z,4.25
2019-05-23T21:27:30.048Z,4.35
2019-05-23T21:30:03.156Z,4.60
2019-05-23T21:32:37.177Z,4.40
2019-05-23T21:35:10.402Z,4.00
2019-05-23T21:37:43.527Z,4.12
2019-05-23T21:40:32.641Z,3.85
2019-05-23T21:43:05.999Z,3.67
2019-05-23T21:45:39.319Z,3.50
2019-05-23T21:48:13.489Z,3.60
2019-05-23T21:50:46.555Z,3.70
2019-05-23T21:53:20.006Z,4.60
2019-05-23T21:55:53.449Z,3.87
2019-05-23T21:58:26.695Z,4.20
2019-05-23T22:01:57.907Z,4.22
2019-05-23T22:04:38.279Z,5.08
2019-05-23T22:07:12.136Z,5.25
2019-05-23T22:09:45.335Z,6.22
2019-05-23T22:12:18.503Z,6.53
2019-05-23T22:14:51.936Z,6.42
2019-05-23T22:17:26.639Z,6.08
2019-05-23T22:19:59.719Z,5.67
2019-05-23T22:22:33.181Z,4.90
2019-05-23T22:25:06.526Z,5.80
2019-05-23T22:27:39.666Z,5.75
2019-05-23T22:30:12.859Z,6.70
2019-05-23T22:32:46.527Z,7.17
2019-05-23T22:35:20.604Z,7.53
2019-05-23T22:37:53.903Z,7.37
2019-05-23T22:40:26.820Z,7.22
2019-05-23T22:43:00.412Z,6.33
2019-05-23T22:45:34.197Z,5.42
2019-05-23T22:48:07.347Z,4.65
2019-05-23T22:50:40.254Z,4.78
2019-05-23T22:53:13.213Z,4.92
2019-05-23T22:55:46.344Z,4.60
2019-05-23T22:58:19.375Z,3.92
2019-05-23T23:00:52.384Z,2.70
2019-05-23T23:03:25.564Z,3.37
2019-05-23T23:05:58.608Z,4.10
2019-05-23T23:08:33.110Z,3.60
2019-05-23T23:11:06.141Z,4.65
2019-05-23T23:13:39.506Z,4.53
2019-05-23T23:16:13.148Z,4.53
2019-05-23T23:18:46.418Z,4.85
2019-05-23T23:21:19.680Z,4.00
2019-05-23T23:23:52.849Z,3.55
2019-05-23T23:26:25.800Z,3.72
2019-05-23T23:28:59.273Z,4.10
2019-05-23T23:31:32.795Z,4.33
2019-05-23T23:34:05.824Z,4.37
2019-05-23T23:36:38.774Z,4.40
2019-05-23T23:39:11.929Z,4.40
2019-05-23T23:41:44.887Z,3.90
2019-05-23T23:44:18.017Z,3.12
2019-05-23T23:47:08.320Z,4.10
2019-05-23T23:49:58.699Z,4.03
2019-05-23T23:52:49.377Z,3.90
2019-05-23T23:55:40.467Z,3.72
2019-05-23T23:58:12.517Z,4.58
